Accueil
METAR-TAF:

METAR-TAF

Aéroports :

Winner, Dakota du Sud, États-Unis

latitude: 43-23-26N, longitude: 099-50-33W, altitude: 619 m

Observation

Le bulletin a été fait il y a 44 minutes, à 15:53 UTC
Vent 6 kt de ouest/sud-ouest
Température 3°C
Humidité 75%
Pression 1025 hPa
Visibilité: 16.1 km
Ciel clair

METAR: KICR 141553Z AUTO 24006KT 10SM CLR 03/M01 A3027 RMK AO2 SLP270 T00281006

Heure: 10:37 (16:37 UTC)


TAF: absent

Observations et prévisions météorologiques de plus de 4000 aéroports (messages METAR et TAF).

Les stations disponibles sont représentées par des disques jaunes et rouges sur la carte.

Passer la souris dessus pour voir le nom de la station.

Cliquer dessus pour voir les observations et prévisions météorologiques.

Pour changer de carte: cliquez sur les boutons verts avec une croix noire pour zoomer, sur le bouton vert avec un tiret pour effectuer un zoom arrière, ou sur les flèches vertes pour les cartes adjacentes.


METAR-TAF: